Hovedside
METAR-TAF:

METAR-TAF

Lufthavner :

Stord, Norge

Stord lufthavn

breddegrad: 59-48N, lengdegrad: 005-21E, høyde over havet: 49 m

Gjeldene værobservasjon

Denne rapporten ble laget for 17 minutter siden, klokken 14:20 UTC
Vind 13 kt fra Sørøst
Temperatur 6°C
Luftfuktighet 81%
Trykk 986 hPa
Sikt 10 km eller mer
Brutte skyer i en høyde av 2200 ft
lett regn

METAR: ENSO 221420Z 13013KT 9999 -RA BKN022 06/03 Q0986

Tid: 15:37 (14:37 UTC)

Varsel

Denne rapporten ble laget for 3 timer og 37 minutter siden, klokken 11:00 UTC
Varsel gyldig fra 22. klokken 12 UTC til 22. klokken 19 UTC
Vind 12 kt fra Øst-sørøst
Sikt 10 km eller mer
Brutte skyer i en høyde av 2500 ft
lett regn
Midlertidig
fra 22. klokken 12 UTC til 22. klokken 19 UTC
Vind 18 kt fra Sørøst med vindkast opp mot 28 kt

TAF: ENSO 221100Z 2212/2219 12012KT 9999 -RA BKN025 TEMPO 2212/2219 14018G28KT

Værobservasjoner og værvarsel for over 4000 flyplasser (METAR- og TAF-rapporter).

Tilgjengelige stasjoner er representert av de røde og gule prikkene på kartet.

Hold musepekeren over prikken for å se navnet på stasjonen.

Klikk så for å se værobservasjoner og -varsler.

For å forandre kartet kan du klikke på den grønne knappen med svart kryss for å zoome inn, på den grønne knappen med strek for å zoome ut, eller på de grønne pilene for å se tilstøtende kart.


METAR-TAF: